createdAt,value
2023-03-11T00:01:12.454Z,97961.28
2023-03-11T00:03:41.293Z,97954.50
2023-03-11T00:06:10.016Z,97959.91
2023-03-11T00:08:38.679Z,97959.69
2023-03-11T00:11:07.306Z,97959.47
2023-03-11T00:13:36.891Z,97965.84
2023-03-11T00:16:06.432Z,97961.47
2023-03-11T00:18:36.419Z,97977.56
2023-03-11T00:21:05.586Z,97969.38
2023-03-11T00:23:35.533Z,97975.75
2023-03-11T00:26:04.296Z,97981.75
2023-03-11T00:28:34.402Z,97979.88
2023-03-11T00:31:03.588Z,97986.84
2023-03-11T00:33:32.518Z,97985.84
2023-03-11T00:36:02.511Z,97982.84
2023-03-11T00:38:31.189Z,97984.41
2023-03-11T00:41:01.643Z,97988.38
2023-03-11T00:43:30.243Z,97984.41
2023-03-11T00:45:58.892Z,97997.72
2023-03-11T00:48:27.570Z,97995.38
2023-03-11T00:50:56.156Z,98000.56
2023-03-11T00:53:26.161Z,98006.13
2023-03-11T00:55:54.787Z,97994.41
2023-03-11T00:58:27.280Z,98011.13
2023-03-11T01:00:55.990Z,97999.44
2023-03-11T01:03:24.620Z,98008.31
2023-03-11T01:05:53.219Z,98008.69
2023-03-11T01:08:21.780Z,98014.09
2023-03-11T01:10:51.764Z,98006.75
2023-03-11T01:13:20.571Z,98015.44
2023-03-11T01:15:49.227Z,98005.81
2023-03-11T01:18:17.813Z,98003.44
2023-03-11T01:20:46.378Z,97991.72
2023-03-11T01:23:16.409Z,97994.44
2023-03-11T01:25:45.051Z,98015.00
2023-03-11T01:28:14.970Z,97994.25
2023-03-11T01:30:44.282Z,97995.59
2023-03-11T01:33:16.898Z,98009.25
2023-03-11T01:35:46.066Z,98020.69
2023-03-11T01:38:15.595Z,98019.47
2023-03-11T01:40:46.050Z,98020.31
2023-03-11T01:43:49.921Z,98029.22
2023-03-11T01:46:20.480Z,98034.25
2023-03-11T01:48:50.540Z,98053.19
2023-03-11T01:51:22.031Z,98032.78
2023-03-11T01:53:50.780Z,98016.81
2023-03-11T01:56:19.357Z,98046.31
2023-03-11T01:58:52.279Z,98027.25
2023-03-11T02:01:21.789Z,98025.59
2023-03-11T02:03:50.758Z,98040.78
2023-03-11T02:06:22.191Z,98024.78
2023-03-11T02:08:51.390Z,98017.63
2023-03-11T02:11:21.968Z,98021.16
2023-03-11T02:13:52.672Z,98029.19
2023-03-11T02:16:21.395Z,98030.72
2023-03-11T02:19:02.128Z,98052.22
2023-03-11T02:21:31.626Z,98048.72
2023-03-11T02:24:06.221Z,98043.50
2023-03-11T02:26:40.218Z,98051.78
2023-03-11T02:29:11.577Z,98055.47
2023-03-11T02:31:43.131Z,98064.94
2023-03-11T02:34:17.351Z,98045.47
2023-03-11T02:36:46.015Z,98048.97
2023-03-11T02:39:14.653Z,98048.38
2023-03-11T02:41:45.599Z,98041.22
2023-03-11T02:44:16.674Z,98046.75
2023-03-11T02:46:45.836Z,98041.50
2023-03-11T02:49:15.406Z,98058.94
2023-03-11T02:51:44.091Z,98059.81
2023-03-11T02:54:12.753Z,98059.56
2023-03-11T02:56:41.375Z,98070.84
2023-03-11T02:59:09.957Z,98079.22
2023-03-11T03:01:39.914Z,98048.25
2023-03-11T03:04:08.609Z,98052.97
2023-03-11T03:06:37.403Z,98074.88
2023-03-11T03:09:06.099Z,98066.34
2023-03-11T03:11:34.693Z,98088.66
2023-03-11T03:14:03.321Z,98082.63
2023-03-11T03:16:31.930Z,98086.63
2023-03-11T03:19:01.882Z,98085.66
2023-03-11T03:21:30.485Z,98106.28
2023-03-11T03:23:59.251Z,98103.63
2023-03-11T03:26:28.097Z,98103.44
2023-03-11T03:28:56.720Z,98101.50
2023-03-11T03:31:25.419Z,98091.78
2023-03-11T03:33:54.040Z,98082.38
2023-03-11T03:36:24.096Z,98094.19
2023-03-11T03:38:55.206Z,98085.03
2023-03-11T03:41:24.290Z,98095.53
2023-03-11T03:43:53.550Z,98105.75
2023-03-11T03:46:22.406Z,98104.88
2023-03-11T03:48:51.194Z,98108.16
2023-03-11T03:51:19.825Z,98108.78
2023-03-11T03:53:49.764Z,98109.56
2023-03-11T03:56:19.309Z,98120.59
2023-03-11T03:58:47.889Z,98128.81
2023-03-11T04:01:16.464Z,98136.53
2023-03-11T04:03:45.109Z,98145.00
2023-03-11T04:06:17.927Z,98146.59
2023-03-11T04:08:46.638Z,98141.34
2023-03-11T04:11:16.555Z,98138.22
2023-03-11T04:13:45.205Z,98148.25
2023-03-11T04:16:18.358Z,98139.63
2023-03-11T04:18:47.050Z,98146.38
2023-03-11T04:21:16.025Z,98149.22
2023-03-11T04:23:44.735Z,98158.38
2023-03-11T04:26:13.687Z,98158.25
2023-03-11T04:28:43.604Z,98154.78
2023-03-11T04:31:12.713Z,98155.09
2023-03-11T04:33:41.398Z,98152.31
2023-03-11T04:36:11.318Z,98163.59
2023-03-11T04:38:40.005Z,98159.44
2023-03-11T04:41:08.801Z,98156.41
2023-03-11T04:43:37.452Z,98147.41
2023-03-11T04:46:07.498Z,98146.78
2023-03-11T04:48:36.084Z,98155.09
2023-03-11T04:51:05.126Z,98152.56
2023-03-11T04:53:33.859Z,98143.06
2023-03-11T04:56:02.691Z,98148.38
2023-03-11T04:58:31.293Z,98152.13
2023-03-11T05:00:59.863Z,98158.44
2023-03-11T05:03:29.842Z,98153.88
2023-03-11T05:06:00.120Z,98152.19
2023-03-11T05:08:28.722Z,98169.16
2023-03-11T05:10:57.367Z,98170.41
2023-03-11T05:13:25.946Z,98159.63
2023-03-11T05:15:54.940Z,98160.44
2023-03-11T05:18:23.521Z,98159.28
2023-03-11T05:20:54.158Z,98168.34
2023-03-11T05:23:22.726Z,98164.00
2023-03-11T05:25:51.346Z,98171.78
2023-03-11T05:28:19.978Z,98173.38
2023-03-11T05:30:48.576Z,98171.94
2023-03-11T05:33:17.192Z,98177.28
2023-03-11T05:35:45.814Z,98180.59
2023-03-11T05:38:15.818Z,98188.16
2023-03-11T05:40:44.383Z,98181.72
2023-03-11T05:43:12.991Z,98186.63
2023-03-11T05:45:41.562Z,98192.44
2023-03-11T05:48:10.143Z,98188.59
2023-03-11T05:50:39.028Z,98186.72
2023-03-11T05:53:07.610Z,98175.09
2023-03-11T05:55:37.607Z,98171.38
2023-03-11T05:58:06.234Z,98176.41
2023-03-11T06:00:34.969Z,98168.38
2023-03-11T06:03:03.734Z,98180.59
2023-03-11T06:05:32.304Z,98183.78
2023-03-11T06:08:00.860Z,98182.69
2023-03-11T06:10:29.490Z,98199.94
2023-03-11T06:12:59.444Z,98195.38
2023-03-11T06:15:28.124Z,98202.69
2023-03-11T06:17:56.883Z,98199.03
2023-03-11T06:20:25.508Z,98207.91
2023-03-11T06:22:54.251Z,98206.50
2023-03-11T06:25:23.029Z,98204.06
2023-03-11T06:27:53.212Z,98210.03
2023-03-11T06:30:24.602Z,98208.75
2023-03-11T06:32:53.265Z,98200.88
2023-03-11T06:35:22.157Z,98212.09
2023-03-11T06:37:50.787Z,98223.16
2023-03-11T06:40:19.693Z,98221.31
2023-03-11T06:42:48.442Z,98232.63
2023-03-11T06:45:19.545Z,98233.75
2023-03-11T06:47:50.486Z,98240.97
2023-03-11T06:50:19.087Z,98245.38
2023-03-11T06:52:47.707Z,98242.69
2023-03-11T06:55:16.505Z,98259.59
2023-03-11T06:57:45.681Z,98264.75
2023-03-11T07:00:16.346Z,98269.41
2023-03-11T07:02:44.960Z,98271.44
2023-03-11T07:05:15.128Z,98270.06
2023-03-11T07:07:43.702Z,98282.75
2023-03-11T07:10:12.950Z,98283.94
2023-03-11T07:12:41.566Z,98273.84
2023-03-11T07:15:11.176Z,98274.59
2023-03-11T07:17:39.825Z,98269.06
2023-03-11T07:20:09.850Z,98273.28
2023-03-11T07:22:39.841Z,98283.03
2023-03-11T07:25:09.122Z,98290.69
2023-03-11T07:27:37.705Z,98291.47
2023-03-11T07:30:07.167Z,98283.59
2023-03-11T07:32:35.784Z,98291.00
2023-03-11T07:35:04.820Z,98293.06
2023-03-11T07:37:33.392Z,98288.06
2023-03-11T07:40:03.338Z,98289.63
2023-03-11T07:42:33.840Z,98294.06
2023-03-11T07:45:02.478Z,98294.16
2023-03-11T07:47:31.106Z,98299.31
2023-03-11T07:49:59.740Z,98307.78
2023-03-11T07:52:31.223Z,98301.13
2023-03-11T07:54:59.855Z,98300.69
2023-03-11T07:57:29.868Z,98298.38
2023-03-11T07:59:58.570Z,98305.97
2023-03-11T08:02:27.220Z,98307.44
2023-03-11T08:04:57.175Z,98310.13
2023-03-11T08:07:25.767Z,98317.00
2023-03-11T08:09:55.430Z,98326.44
2023-03-11T08:12:24.018Z,98317.44
2023-03-11T08:14:54.021Z,98326.44
2023-03-11T08:17:22.599Z,98330.47
2023-03-11T08:19:51.479Z,98326.19
2023-03-11T08:22:20.075Z,98322.56
2023-03-11T08:24:52.196Z,98330.22
2023-03-11T08:27:21.348Z,98328.53
2023-03-11T08:29:49.991Z,98331.53
2023-03-11T08:32:20.004Z,98336.06
2023-03-11T08:34:48.658Z,98344.41
2023-03-11T08:37:17.306Z,98345.59
2023-03-11T08:39:45.883Z,98342.91
2023-03-11T08:42:14.542Z,98342.19
2023-03-11T08:44:43.192Z,98341.56
2023-03-11T08:47:11.804Z,98339.16
2023-03-11T08:49:41.801Z,98354.81
2023-03-11T08:52:10.384Z,98358.34
2023-03-11T08:54:38.980Z,98362.00
2023-03-11T08:57:07.617Z,98360.13
2023-03-11T08:59:36.272Z,98355.50
2023-03-11T09:02:05.286Z,98356.00
2023-03-11T09:04:33.908Z,98359.09
2023-03-11T09:07:03.915Z,98352.91
2023-03-11T09:09:33.080Z,98360.94
2023-03-11T09:12:01.721Z,98356.53
2023-03-11T09:14:30.362Z,98365.19
2023-03-11T09:16:59.223Z,98357.13
2023-03-11T09:19:27.866Z,98359.81
2023-03-11T09:21:56.482Z,98366.31
2023-03-11T09:24:26.512Z,98376.41
2023-03-11T09:26:55.159Z,98375.91
2023-03-11T09:29:23.727Z,98382.06
2023-03-11T09:31:52.469Z,98387.59
2023-03-11T09:34:21.177Z,98377.34
2023-03-11T09:36:49.815Z,98391.06
2023-03-11T09:39:18.436Z,98382.88
2023-03-11T09:41:58.363Z,98374.75
2023-03-11T09:44:35.444Z,98372.34
2023-03-11T09:47:36.825Z,98379.91
2023-03-11T09:50:18.945Z,98380.66
2023-03-11T09:52:54.128Z,98382.13
2023-03-11T09:55:31.351Z,98380.47
2023-03-11T09:58:03.571Z,98378.88
2023-03-11T10:00:32.871Z,98373.50
2023-03-11T10:03:03.238Z,98374.84
2023-03-11T10:05:33.177Z,98368.88
2023-03-11T10:08:10.121Z,98375.97
2023-03-11T10:10:42.923Z,98386.06
2023-03-11T10:13:17.693Z,98382.66
2023-03-11T10:15:50.337Z,98373.16
2023-03-11T10:18:41.257Z,98373.06
2023-03-11T10:21:13.694Z,98372.84
2023-03-11T10:23:57.767Z,98377.09
2023-03-11T10:26:31.344Z,98380.97
2023-03-11T10:29:03.733Z,98366.97
2023-03-11T10:31:36.487Z,98378.69
2023-03-11T10:34:10.594Z,98382.84
2023-03-11T10:36:41.808Z,98384.06
2023-03-11T10:39:11.990Z,98374.03
2023-03-11T10:41:44.201Z,98374.56
2023-03-11T10:44:16.136Z,98381.13
2023-03-11T10:46:45.198Z,98377.81
2023-03-11T10:49:15.734Z,98370.53
2023-03-11T10:51:47.026Z,98363.50
2023-03-11T10:54:27.597Z,98362.09
2023-03-11T10:56:58.115Z,98365.63
2023-03-11T10:59:33.643Z,98371.06
2023-03-11T11:02:03.985Z,98361.81
2023-03-11T11:04:37.724Z,98379.09
2023-03-11T11:07:22.352Z,98378.00
2023-03-11T11:10:14.464Z,98376.16
2023-03-11T11:12:54.907Z,98381.09
2023-03-11T11:15:27.353Z,98379.28
2023-03-11T11:17:58.495Z,98378.41
2023-03-11T11:20:28.390Z,98384.72
2023-03-11T11:22:58.888Z,98372.41
2023-03-11T11:25:30.437Z,98378.72
2023-03-11T11:28:01.038Z,98382.47
2023-03-11T11:30:31.083Z,98379.28
2023-03-11T11:33:22.904Z,98376.41
2023-03-11T11:35:53.581Z,98377.69
2023-03-11T11:38:24.036Z,98373.69
2023-03-11T11:40:53.420Z,98371.28
2023-03-11T11:43:26.809Z,98369.03
2023-03-11T11:45:58.689Z,98368.81
2023-03-11T11:48:32.775Z,98371.25
2023-03-11T11:51:02.474Z,98364.50
2023-03-11T11:53:36.174Z,98359.13
2023-03-11T11:56:04.863Z,98364.13
2023-03-11T11:58:33.520Z,98353.72
2023-03-11T12:01:14.150Z,98349.25
2023-03-11T12:04:02.760Z,98356.34
2023-03-11T12:06:35.571Z,98352.25
2023-03-11T12:09:10.265Z,98346.88
2023-03-11T12:11:42.182Z,98346.28
2023-03-11T12:14:16.234Z,98342.53
2023-03-11T12:16:51.535Z,98344.03
2023-03-11T12:19:34.685Z,98338.69
2023-03-11T12:22:21.708Z,98348.34
2023-03-11T12:25:03.004Z,98340.56
2023-03-11T12:27:34.246Z,98329.16
2023-03-11T12:30:05.251Z,98329.72
2023-03-11T12:32:38.756Z,98324.72
2023-03-11T12:35:14.773Z,98330.69
2023-03-11T12:37:43.646Z,98325.28
2023-03-11T12:40:48.341Z,98320.91
2023-03-11T12:43:29.946Z,98309.56
2023-03-11T12:45:59.690Z,98312.94
2023-03-11T12:48:37.310Z,98318.91
2023-03-11T12:51:06.351Z,98317.91
2023-03-11T12:53:46.060Z,98312.75
2023-03-11T12:56:30.618Z,98317.97
2023-03-11T12:59:19.687Z,98318.38
2023-03-11T13:01:55.494Z,98318.16
2023-03-11T13:04:51.465Z,98323.97
2023-03-11T13:07:51.055Z,98315.16
2023-03-11T13:10:35.452Z,98320.91
2023-03-11T13:13:33.364Z,98311.75
2023-03-11T13:16:35.233Z,98311.75
2023-03-11T13:19:38.180Z,98313.44
2023-03-11T13:23:07.169Z,98320.44
2023-03-11T13:25:40.753Z,98307.94
2023-03-11T13:28:51.849Z,98311.13
2023-03-11T13:31:53.573Z,98315.56
2023-03-11T13:34:26.879Z,98317.97
2023-03-11T13:37:07.222Z,98312.09
2023-03-11T13:39:43.815Z,98313.72
2023-03-11T13:42:22.932Z,98318.03
2023-03-11T13:44:51.724Z,98319.97
2023-03-11T13:47:21.633Z,98314.13
2023-03-11T13:49:53.714Z,98319.22
2023-03-11T13:52:27.244Z,98323.13
2023-03-11T13:55:00.933Z,98320.91
2023-03-11T13:57:31.472Z,98328.84
2023-03-11T14:00:15.887Z,98324.22
2023-03-11T14:02:47.189Z,98324.81
2023-03-11T14:05:17.932Z,98324.28
2023-03-11T14:07:46.540Z,98323.66
2023-03-11T14:10:34.140Z,98330.00
2023-03-11T14:13:07.840Z,98323.22
2023-03-11T14:15:44.843Z,98305.97
2023-03-11T14:18:34.929Z,98303.31
2023-03-11T14:21:05.394Z,98313.72
2023-03-11T14:23:36.479Z,98311.88
2023-03-11T14:26:08.733Z,98317.53
2023-03-11T14:28:40.746Z,98307.91
2023-03-11T14:31:22.573Z,98316.19
2023-03-11T14:33:58.619Z,98316.00
2023-03-11T14:36:27.253Z,98315.19
2023-03-11T14:38:55.848Z,98308.81
2023-03-11T14:41:25.807Z,98289.63
2023-03-11T14:43:55.410Z,98295.16
2023-03-11T14:46:27.498Z,98300.09
2023-03-11T14:48:56.627Z,98302.69
2023-03-11T14:51:27.524Z,98302.88
2023-03-11T14:54:04.582Z,98295.91
2023-03-11T14:56:37.511Z,98299.94
2023-03-11T14:59:10.543Z,98285.34
2023-03-11T15:01:41.972Z,98300.34
2023-03-11T15:04:12.484Z,98299.91
2023-03-11T15:06:43.661Z,98305.03
2023-03-11T15:09:14.046Z,98317.66
2023-03-11T15:11:48.023Z,98317.66
2023-03-11T15:14:21.862Z,98327.09
2023-03-11T15:16:50.913Z,98322.88
2023-03-11T15:19:33.200Z,98321.94
2023-03-11T15:22:07.361Z,98325.72
2023-03-11T15:24:36.141Z,98322.72
2023-03-11T15:27:08.564Z,98331.13
2023-03-11T15:29:37.343Z,98324.75
2023-03-11T15:32:25.495Z,98334.53
2023-03-11T15:35:04.679Z,98344.13
2023-03-11T15:37:33.340Z,98340.34
2023-03-11T15:40:13.425Z,98343.75
2023-03-11T15:42:43.384Z,98344.16
2023-03-11T15:45:14.864Z,98344.16
2023-03-11T15:47:44.315Z,98344.72
2023-03-11T15:50:27.267Z,98345.34
2023-03-11T15:52:59.115Z,98352.53
2023-03-11T15:55:28.756Z,98349.31
2023-03-11T15:58:03.738Z,98358.34
2023-03-11T16:00:32.661Z,98358.13
2023-03-11T16:03:01.610Z,98362.88
2023-03-11T16:05:30.273Z,98371.66
2023-03-11T16:07:58.951Z,98372.66
2023-03-11T16:10:28.688Z,98374.88
2023-03-11T16:12:57.319Z,98366.84
2023-03-11T16:15:29.570Z,98375.66
2023-03-11T16:18:00.025Z,98379.66
2023-03-11T16:20:30.749Z,98376.63
2023-03-11T16:23:01.263Z,98380.16
2023-03-11T16:25:31.844Z,98366.41
2023-03-11T16:28:01.644Z,98367.81
2023-03-11T16:30:32.893Z,98366.03
2023-03-11T16:33:04.534Z,98367.41
2023-03-11T16:35:34.314Z,98370.22
2023-03-11T16:38:03.292Z,98368.81
2023-03-11T16:40:32.695Z,98367.38
2023-03-11T16:43:03.292Z,98375.59
2023-03-11T16:45:33.552Z,98371.16
2023-03-11T16:48:02.179Z,98379.50
2023-03-11T16:50:31.073Z,98384.09
2023-03-11T16:52:59.898Z,98396.28
2023-03-11T16:55:29.138Z,98387.88
2023-03-11T16:57:58.355Z,98403.22
2023-03-11T17:00:27.775Z,98405.81
2023-03-11T17:02:57.807Z,98409.38
2023-03-11T17:05:26.513Z,98415.75
2023-03-11T17:07:57.162Z,98416.53
2023-03-11T17:10:25.848Z,98411.94
2023-03-11T17:12:54.625Z,98412.91
2023-03-11T17:15:23.454Z,98424.47
2023-03-11T17:17:52.135Z,98424.47
2023-03-11T17:20:22.335Z,98419.66
2023-03-11T17:22:51.153Z,98424.84
2023-03-11T17:25:20.106Z,98431.94
2023-03-11T17:27:48.730Z,98433.72
2023-03-11T17:30:30.436Z,98440.13
2023-03-11T17:33:04.717Z,98445.72
2023-03-11T17:35:34.967Z,98455.66
2023-03-11T17:38:03.679Z,98458.22
2023-03-11T17:40:32.762Z,98462.63
2023-03-11T17:43:01.564Z,98460.56
2023-03-11T17:45:30.375Z,98463.72
2023-03-11T17:47:59.044Z,98476.59
2023-03-11T17:50:27.811Z,98488.13
2023-03-11T17:52:57.879Z,98489.88
2023-03-11T17:55:26.465Z,98486.66
2023-03-11T17:57:55.108Z,98493.75
2023-03-11T18:00:23.764Z,98496.91
2023-03-11T18:02:52.469Z,98505.91
2023-03-11T18:05:21.508Z,98502.53
2023-03-11T18:07:50.193Z,98506.47
2023-03-11T18:10:21.444Z,98506.78
2023-03-11T18:12:50.102Z,98506.09
2023-03-11T18:15:19.854Z,98505.72
2023-03-11T18:17:48.950Z,98513.22
2023-03-11T18:20:18.422Z,98519.31
2023-03-11T18:22:47.324Z,98532.28
2023-03-11T18:25:15.991Z,98534.41
2023-03-11T18:27:45.918Z,98531.56
2023-03-11T18:30:15.414Z,98537.13
2023-03-11T18:32:44.793Z,98530.06
2023-03-11T18:35:14.267Z,98534.63
2023-03-11T18:37:42.920Z,98537.59
2023-03-11T18:40:13.037Z,98539.34
2023-03-11T18:42:41.629Z,98542.13
2023-03-11T18:45:12.366Z,98545.06
2023-03-11T18:47:41.174Z,98555.97
2023-03-11T18:50:11.322Z,98550.34
2023-03-11T18:52:39.956Z,98546.59
2023-03-11T18:55:09.268Z,98551.50
2023-03-11T18:57:40.283Z,98550.53
2023-03-11T19:00:11.752Z,98557.03
2023-03-11T19:02:40.422Z,98555.09
2023-03-11T19:05:10.713Z,98556.03
2023-03-11T19:07:39.336Z,98560.06
2023-03-11T19:10:08.662Z,98563.81
2023-03-11T19:12:38.119Z,98556.22
2023-03-11T19:15:08.078Z,98561.31
2023-03-11T19:17:38.052Z,98564.25
2023-03-11T19:20:08.785Z,98564.94
2023-03-11T19:22:38.169Z,98561.75
2023-03-11T19:25:07.536Z,98564.69
2023-03-11T19:27:38.954Z,98570.31
2023-03-11T19:30:09.856Z,98579.56
2023-03-11T19:32:40.011Z,98581.97
2023-03-11T19:35:10.901Z,98577.50
2023-03-11T19:37:39.581Z,98583.66
2023-03-11T19:40:11.465Z,98580.06
2023-03-11T19:42:40.176Z,98583.63
2023-03-11T19:45:09.558Z,98582.81
2023-03-11T19:47:39.756Z,98582.06
2023-03-11T19:50:09.460Z,98585.31
2023-03-11T19:52:38.057Z,98583.75
2023-03-11T19:55:07.836Z,98593.88
2023-03-11T19:57:36.460Z,98598.13
2023-03-11T20:00:06.275Z,98599.53
2023-03-11T20:02:35.047Z,98606.00
2023-03-11T20:05:05.676Z,98601.34
2023-03-11T20:07:34.536Z,98608.63
2023-03-11T20:10:04.085Z,98607.81
2023-03-11T20:12:34.382Z,98610.91
2023-03-11T20:15:03.068Z,98615.75
2023-03-11T20:17:31.644Z,98620.75
2023-03-11T20:20:00.344Z,98622.88
2023-03-11T20:22:30.390Z,98621.28
2023-03-11T20:24:59.026Z,98619.34
2023-03-11T20:27:27.751Z,98620.34
2023-03-11T20:29:56.459Z,98627.13
2023-03-11T20:32:25.233Z,98627.75
2023-03-11T20:34:54.063Z,98638.13
2023-03-11T20:37:22.655Z,98638.25
2023-03-11T20:39:53.046Z,98639.59
2023-03-11T20:42:21.654Z,98641.06
2023-03-11T20:44:52.475Z,98639.13
2023-03-11T20:47:21.413Z,98644.00
2023-03-11T20:49:50.125Z,98644.00
2023-03-11T20:52:18.829Z,98643.84
2023-03-11T20:54:47.587Z,98643.34
2023-03-11T20:57:17.648Z,98650.78
2023-03-11T20:59:46.276Z,98651.88
2023-03-11T21:02:14.952Z,98648.69
2023-03-11T21:04:44.113Z,98658.53
2023-03-11T21:07:12.782Z,98655.94
2023-03-11T21:09:41.522Z,98658.03
2023-03-11T21:12:10.219Z,98657.25
2023-03-11T21:14:40.330Z,98657.91
2023-03-11T21:17:09.023Z,98663.22
2023-03-11T21:19:37.905Z,98661.63
2023-03-11T21:22:07.494Z,98662.41
2023-03-11T21:24:36.219Z,98662.44
2023-03-11T21:27:05.010Z,98672.88
2023-03-11T21:29:33.772Z,98662.09
2023-03-11T21:32:04.061Z,98666.78
2023-03-11T21:34:32.831Z,98665.94
2023-03-11T21:37:01.648Z,98675.31
2023-03-11T21:39:30.361Z,98664.69
2023-03-11T21:41:59.043Z,98673.38
2023-03-11T21:44:27.685Z,98668.38
2023-03-11T21:46:56.571Z,98676.25
2023-03-11T21:49:27.491Z,98669.84
2023-03-11T21:51:56.110Z,98664.97
2023-03-11T21:54:24.729Z,98676.28
2023-03-11T21:56:53.490Z,98671.41
2023-03-11T21:59:25.112Z,98675.28
2023-03-11T22:01:54.187Z,98679.47
2023-03-11T22:04:23.006Z,98683.66
2023-03-11T22:06:54.880Z,98677.69
2023-03-11T22:09:25.799Z,98679.78
2023-03-11T22:11:56.121Z,98684.16
2023-03-11T22:14:24.979Z,98672.53
2023-03-11T22:16:53.722Z,98680.09
2023-03-11T22:19:22.557Z,98671.88
2023-03-11T22:21:51.284Z,98666.25
2023-03-11T22:24:21.333Z,98670.09
2023-03-11T22:26:50.183Z,98673.81
2023-03-11T22:29:18.817Z,98680.91
2023-03-11T22:31:47.576Z,98671.06
2023-03-11T22:34:16.167Z,98671.88
2023-03-11T22:36:45.276Z,98685.53
2023-03-11T22:39:13.871Z,98685.22
2023-03-11T22:41:43.870Z,98679.09
2023-03-11T22:44:12.539Z,98681.03
2023-03-11T22:46:41.120Z,98666.38
2023-03-11T22:49:09.765Z,98681.50
2023-03-11T22:51:38.437Z,98681.19
2023-03-11T22:54:07.141Z,98684.38
2023-03-11T22:56:35.900Z,98678.41
2023-03-11T22:59:05.847Z,98681.66
2023-03-11T23:01:34.486Z,98692.78
2023-03-11T23:04:03.149Z,98681.47
2023-03-11T23:06:31.770Z,98689.31
2023-03-11T23:09:00.517Z,98690.44
2023-03-11T23:11:29.206Z,98697.53
2023-03-11T23:13:57.902Z,98695.41
2023-03-11T23:16:27.984Z,98704.94
2023-03-11T23:18:57.202Z,98702.50
2023-03-11T23:21:27.508Z,98704.09
2023-03-11T23:23:56.438Z,98704.19
2023-03-11T23:26:25.082Z,98707.63
2023-03-11T23:28:54.252Z,98712.72
2023-03-11T23:31:25.187Z,98707.41
2023-03-11T23:33:55.347Z,98704.31
2023-03-11T23:36:26.682Z,98706.88
2023-03-11T23:38:55.333Z,98704.00
2023-03-11T23:41:24.480Z,98710.66
2023-03-11T23:43:53.136Z,98712.66
2023-03-11T23:46:21.806Z,98707.44
2023-03-11T23:48:50.454Z,98703.88
2023-03-11T23:51:20.458Z,98703.19
2023-03-11T23:53:49.146Z,98700.00
2023-03-11T23:56:18.752Z,98705.44
2023-03-11T23:58:47.538Z,98708.09
